Impacts METAR Board
IDs:

KEWR - Newark Intl, NJ, US

Updated at: 1000 UTC 30 Oct 2020
Potential Impact None Slight Moderate High
Time 29/22Z 29/23Z 30/00Z 30/01Z 30/02Z 30/03Z 30/04Z 30/05Z 30/06Z 30/07Z 30/08Z 30/09Z 30/10Z
Temp49 48 48 48 48 47 47 47 46 46 45 44 44
Dewpt47 46 46 46 46 46 46 45 44 45 43 42 41
Altim29.54 29.56 29.58 29.58 29.61 29.63 29.66 29.66 29.67 29.69 29.66 29.65 29.68
VIS2 2 2 2 2 2 2 2 2 4 5 6 6
CIG8 8 12 12 11 7 6 8 8 6 8 13 13
CoverOVCOVCOVCOVCOVCOVCOVCOVCOVCOVCOVCOVCOVC
FltCatIFRIFRIFRIFRIFRIFRIFRIFRIFRIFRIFRMVFRMVFR
WX-RA BR-RA BR-RA BR-RA BR-RA BR-RA BR-RA BR-RA BR-RA BR-RA BR-RA BRRA BRRA BR
WDir30202030202020202030303010
WSpd18 18 17 14 13 11 12 12 15 12 16 16 17
WGst26 24 24 24 -- -- -- -- -- -- -- 29 21
Raw hourly METARs
KEWR 292151Z 03018G26KT 2SM -RA BR BKN008 OVC012 09/08 A2954 RMK AO2 PK WND 03026/2149 SFC VIS 5 SLP001 P0009 T00940083
KEWR 292251Z 02018G24KT 2SM -RA BR BKN008 OVC012 09/08 A2956 RMK AO2 PK WND 03029/2202 SFC VIS 3 SLP009 P0004 T00890078
KEWR 292351Z 02017G24KT 2SM -RA BR SCT008 BKN012 OVC019 09/08 A2958 RMK AO2 PK WND 02027/2320 SFC VIS 4 SLP017 P0004 60054 T00890078 10100 20089 53007
KEWR 300051Z 03014G24KT 2SM -RA BR SCT008 BKN012 OVC037 09/08 A2958 RMK AO2 SFC VIS 5 SLP017 P0002 T00890078
KEWR 300151Z 02013KT 2SM -RA BR SCT007 OVC011 09/08 A2961 RMK AO2 SFC VIS 5 SLP027 P0004 T00890078
KEWR 300251Z 02011KT 2SM -RA BR BKN007 OVC013 08/08 A2963 RMK AO2 SFC VIS 4 SLP034 P0001 60007 T00830078 53017
KEWR 300351Z 02012KT 2SM -RA BR BKN006 BKN013 OVC022 08/08 A2966 RMK AO2 SFC VIS 4 SLP042 P0003 T00830078
KEWR 300451Z 02012KT 2SM -RA BR BKN008 BKN013 OVC025 08/07 A2966 RMK AO2 SFC VIS 5 SLP044 P0002 T00830072 401330083
KEWR 300551Z 02015KT 2SM -RA BR BKN008 BKN013 OVC023 08/07 A2967 RMK AO2 SFC VIS 5 SLP046 P0002 60014 T00780067 10089 20078 51012
KEWR 300651Z 03012KT 4SM -RA BR BKN006 BKN012 OVC026 08/07 A2969 RMK AO2 SLP052 P0003 T00780072
KEWR 300751Z 03016KT 5SM -RA BR BKN008 BKN025 OVC038 07/06 A2966 RMK AO2 SLP045 P0001 T00720061
KEWR 300851Z 03016G29KT 6SM RA BR FEW008 BKN013 OVC020 07/06 A2965 RMK AO2 PK WND 03029/0849 SLP039 P0002 60006 T00670056 58007
KEWR 300951Z 01017G21KT 6SM RA BR FEW008 BKN013 OVC025 07/05 A2968 RMK AO2 SLP051 P0009 T00670050



Page loaded:  10:42 UTC  |   03:42 AM Pacific  |   04:42 AM Mountain  |   05:42 AM Central  |   06:42 AM Eastern

 

ADVISORIES

FORECASTS

FORECASTS

OBSERVATIONS

USER TOOLS

ABOUT US